Home > Products > Valid Products > TAF

000
FTUS44 KMOB 090541
TAFPNS
TAF
KPNS 090541Z 0906/1006 29009KT P6SM SKC
     FM091500 29017G25KT P6SM FEW070
     FM100000 31012KT P6SM FEW070=



000
FTUS44 KMOB 090541
TAFPNS
TAF
KPNS 090541Z 0906/1006 29009KT P6SM SKC
     FM091500 29017G25KT P6SM FEW070
     FM100000 31012KT P6SM FEW070=



000
FTUS44 KMOB 090541
TAFMOB
TAF
KMOB 090541Z 0906/1006 28006KT P6SM SKC
     FM091500 30015G23KT P6SM FEW070
     FM100000 30007KT P6SM FEW070=



000
FTUS44 KMOB 090541
TAFMOB
TAF
KMOB 090541Z 0906/1006 28006KT P6SM SKC
     FM091500 30015G23KT P6SM FEW070
     FM100000 30007KT P6SM FEW070=



000
FTUS44 KMOB 090541
TAFPNS
TAF
KPNS 090541Z 0906/1006 29009KT P6SM SKC
     FM091500 29017G25KT P6SM FEW070
     FM100000 31012KT P6SM FEW070=



000
FTUS44 KMOB 090541
TAFMOB
TAF
KMOB 090541Z 0906/1006 28006KT P6SM SKC
     FM091500 30015G23KT P6SM FEW070
     FM100000 30007KT P6SM FEW070=



000
FTUS44 KMOB 082342
TAFMOB
TAF
KMOB 082342Z 0900/0924 30012G18KT P6SM SCT070
     FM090300 29008KT P6SM FEW070
     FM091500 30014G22KT P6SM FEW070=



000
FTUS44 KMOB 082342
TAFPNS
TAF
KPNS 082342Z 0900/0924 31018G26KT P6SM SCT070
     FM090300 31012G18KT P6SM FEW070
     FM091500 30017G25KT P6SM FEW070=



000
FTUS44 KMOB 082342
TAFPNS
TAF
KPNS 082342Z 0900/0924 31018G26KT P6SM SCT070
     FM090300 31012G18KT P6SM FEW070
     FM091500 30017G25KT P6SM FEW070=



000
FTUS44 KMOB 082342
TAFMOB
TAF
KMOB 082342Z 0900/0924 30012G18KT P6SM SCT070
     FM090300 29008KT P6SM FEW070
     FM091500 30014G22KT P6SM FEW070=



000
FTUS44 KMOB 082342
TAFPNS
TAF
KPNS 082342Z 0900/0924 31018G26KT P6SM SCT070
     FM090300 31012G18KT P6SM FEW070
     FM091500 30017G25KT P6SM FEW070=



000
FTUS44 KMOB 082342
TAFMOB
TAF
KMOB 082342Z 0900/0924 30012G18KT P6SM SCT070
     FM090300 29008KT P6SM FEW070
     FM091500 30014G22KT P6SM FEW070=



000
FTUS44 KMOB 081734
TAFMOB
TAF
KMOB 081734Z 0818/0918 29018G28KT P6SM SCT070
     FM090100 29013KT P6SM FEW070
     FM090300 28009KT P6SM SKC=



000
FTUS44 KMOB 081734
TAFPNS
TAF
KPNS 081734Z 0818/0918 25016G20KT P6SM SKC
     FM082000 30023G33KT P6SM SCT070
     FM090300 31018G24KT P6SM SKC=



000
FTUS44 KMOB 081120
TAFPNS
TAF
KPNS 081120Z 0812/0912 25007KT P6SM SKC
     FM081500 28015G23KT P6SM FEW040 FEW100
     FM081800 30022G32KT P6SM SCT050
     FM090600 29017KT P6SM SKC=



000
FTUS44 KMOB 081120
TAFMOB
TAF
KMOB 081120Z 0812/0912 24005KT P6SM SKC
     FM081500 29013G20KT P6SM FEW040 FEW100
     FM081800 29020G30KT P6SM SCT050
     FM090000 29013KT P6SM SCT050=



000
FTUS44 KMOB 081120
TAFMOB
TAF
KMOB 081120Z 0812/0912 24005KT P6SM SKC
     FM081500 29013G20KT P6SM FEW040 FEW100
     FM081800 29020G30KT P6SM SCT050
     FM090000 29013KT P6SM SCT050=



000
FTUS44 KMOB 081120
TAFPNS
TAF
KPNS 081120Z 0812/0912 25007KT P6SM SKC
     FM081500 28015G23KT P6SM FEW040 FEW100
     FM081800 30022G32KT P6SM SCT050
     FM090600 29017KT P6SM SKC=



000
FTUS44 KMOB 081120
TAFMOB
TAF
KMOB 081120Z 0812/0912 24005KT P6SM SKC
     FM081500 29013G20KT P6SM FEW040 FEW100
     FM081800 29020G30KT P6SM SCT050
     FM090000 29013KT P6SM SCT050=



000
FTUS44 KMOB 080534
TAFMOB
TAF
KMOB 080534Z 0806/0906 25006KT P6SM SKC
     FM081500 29013G20KT P6SM FEW040 FEW100
     FM081800 29020G30KT P6SM SCT050
     FM090000 29013KT P6SM SCT050=



000
FTUS44 KMOB 080534
TAFPNS
TAF
KPNS 080534Z 0806/0906 27007KT P6SM SKC
     FM081500 28015G23KT P6SM FEW040 FEW100
     FM081800 30022G32KT P6SM SCT050=



000
FTUS44 KMOB 080534
TAFPNS
TAF
KPNS 080534Z 0806/0906 27007KT P6SM SKC
     FM081500 28015G23KT P6SM FEW040 FEW100
     FM081800 30022G32KT P6SM SCT050=



000
FTUS44 KMOB 080534
TAFMOB
TAF
KMOB 080534Z 0806/0906 25006KT P6SM SKC
     FM081500 29013G20KT P6SM FEW040 FEW100
     FM081800 29020G30KT P6SM SCT050
     FM090000 29013KT P6SM SCT050=



000
FTUS44 KMOB 072341
TAFPNS
TAF
KPNS 072341Z 0800/0824 28006KT P6SM SKC
     FM081500 28014G22KT P6SM FEW040 FEW200
     FM081800 30020G30KT P6SM SCT050=



000
FTUS44 KMOB 072341
TAFMOB
TAF
KMOB 072341Z 0800/0824 25004KT P6SM SKC
     FM081500 29013G20KT P6SM FEW040 FEW200
     FM081800 29020G30KT P6SM SCT050=



000
FTUS44 KMOB 072341
TAFPNS
TAF
KPNS 072341Z 0800/0824 28006KT P6SM SKC
     FM081500 28014G22KT P6SM FEW040 FEW200
     FM081800 30020G30KT P6SM SCT050=



000
FTUS44 KMOB 072341
TAFMOB
TAF
KMOB 072341Z 0800/0824 25004KT P6SM SKC
     FM081500 29013G20KT P6SM FEW040 FEW200
     FM081800 29020G30KT P6SM SCT050=



000
FTUS44 KMOB 072341
TAFPNS
TAF
KPNS 072341Z 0800/0824 28006KT P6SM SKC
     FM081500 28014G22KT P6SM FEW040 FEW200
     FM081800 30020G30KT P6SM SCT050=



000
FTUS44 KMOB 072341
TAFMOB
TAF
KMOB 072341Z 0800/0824 25004KT P6SM SKC
     FM081500 29013G20KT P6SM FEW040 FEW200
     FM081800 29020G30KT P6SM SCT050=



000
FTUS44 KMOB 071723 CCA
TAFPNS
TAF COR
KPNS 071723Z 0718/0818 01009KT P6SM SKC
     FM072100 27005KT P6SM SKC=



000
FTUS44 KMOB 071721
TAFPNS
TAF
KPNS 071721Z 0718/0818 01009KT P6SM SKC
     FM072100 30009KT P6SM SKC=



000
FTUS44 KMOB 071721
TAFPNS
TAF
KPNS 071721Z 0718/0818 01009KT P6SM SKC
     FM072100 30009KT P6SM SKC=



000
FTUS44 KMOB 071721
TAFMOB
TAF
KMOB 071721Z 0718/0818 36008KT P6SM SKC
     FM072100 28007KT P6SM SKC=



000
FTUS44 KMOB 071721
TAFMOB
TAF
KMOB 071721Z 0718/0818 36008KT P6SM SKC
     FM072100 28007KT P6SM SKC=



000
FTUS44 KMOB 071120
TAFMOB
TAF
KMOB 071120Z 0712/0812 36003KT P6SM SKC
     FM072100 28007KT P6SM SKC=



000
FTUS44 KMOB 071120
TAFPNS
TAF
KPNS 071120Z 0712/0812 33006KT P6SM SKC
     FM072100 30009KT P6SM SKC=



000
FTUS44 KMOB 071120
TAFMOB
TAF
KMOB 071120Z 0712/0812 36003KT P6SM SKC
     FM072100 28007KT P6SM SKC=



000
FTUS44 KMOB 071120
TAFPNS
TAF
KPNS 071120Z 0712/0812 33006KT P6SM SKC
     FM072100 30009KT P6SM SKC=



000
FTUS44 KMOB 070533
TAFPNS
TAF
KPNS 070533Z 0706/0806 34007KT P6SM FEW150
     FM072100 30009KT P6SM SKC=



000
FTUS44 KMOB 070533
TAFMOB
TAF
KMOB 070533Z 0706/0806 34005KT P6SM SKC
     FM072100 28007KT P6SM SKC=



000
FTUS44 KMOB 070533
TAFMOB
TAF
KMOB 070533Z 0706/0806 34005KT P6SM SKC
     FM072100 28007KT P6SM SKC=



000
FTUS44 KMOB 070533
TAFPNS
TAF
KPNS 070533Z 0706/0806 34007KT P6SM FEW150
     FM072100 30009KT P6SM SKC=



000
FTUS44 KMOB 070533
TAFMOB
TAF
KMOB 070533Z 0706/0806 34005KT P6SM SKC
     FM072100 28007KT P6SM SKC=



000
FTUS44 KMOB 070533
TAFPNS
TAF
KPNS 070533Z 0706/0806 34007KT P6SM FEW150
     FM072100 30009KT P6SM SKC=



000
FTUS44 KMOB 062334
TAFMOB
TAF
KMOB 062334Z 0700/0724 35006KT P6SM FEW100 SCT150
     FM070600 32004KT P6SM SKC
     FM072100 29007KT P6SM SKC=



000
FTUS44 KMOB 062334
TAFMOB
TAF
KMOB 062334Z 0700/0724 35006KT P6SM FEW100 SCT150
     FM070600 32004KT P6SM SKC
     FM072100 29007KT P6SM SKC=



000
FTUS44 KMOB 062334
TAFPNS
TAF
KPNS 062334Z 0700/0724 35007KT P6SM FEW100 SCT150
     FM072100 30009KT P6SM SKC=



000
FTUS44 KMOB 062334
TAFPNS
TAF
KPNS 062334Z 0700/0724 35007KT P6SM FEW100 SCT150
     FM072100 30009KT P6SM SKC=



000
FTUS44 KMOB 062334
TAFMOB
TAF
KMOB 062334Z 0700/0724 35006KT P6SM FEW100 SCT150
     FM070600 32004KT P6SM SKC
     FM072100 29007KT P6SM SKC=



000
FTUS44 KMOB 062334
TAFPNS
TAF
KPNS 062334Z 0700/0724 35007KT P6SM FEW100 SCT150
     FM072100 30009KT P6SM SKC=



000
FTUS44 KMOB 061933 AAA
TAFMOB
TAF AMD
KMOB 061933Z 0620/0718 04008KT P6SM SCT120
     FM070000 VRB04KT P6SM SKC=



000
FTUS44 KMOB 061737
TAFPNS
TAF
KPNS 061737Z 0618/0718 02008KT P6SM SCT120
     FM070000 34006KT P6SM SKC=



000
FTUS44 KMOB 061737
TAFMOB
TAF
KMOB 061737Z 0618/0718 05008G15KT P6SM SCT120
     FM070000 VRB04KT P6SM SKC=



000
FTUS44 KMOB 061120
TAFMOB
TAF
KMOB 061120Z 0612/0712 35003KT P6SM SKC
     FM061800 02006KT P6SM BKN120
     FM070300 34003KT P6SM SKC=



000
FTUS44 KMOB 061120
TAFPNS
TAF
KPNS 061120Z 0612/0712 03004KT P6SM SKC
     FM061800 33006KT P6SM BKN120
     FM070300 34003KT P6SM SKC=



000
FTUS44 KMOB 061120
TAFMOB
TAF
KMOB 061120Z 0612/0712 35003KT P6SM SKC
     FM061800 02006KT P6SM BKN120
     FM070300 34003KT P6SM SKC=



000
FTUS44 KMOB 061120
TAFMOB
TAF
KMOB 061120Z 0612/0712 35003KT P6SM SKC
     FM061800 02006KT P6SM BKN120
     FM070300 34003KT P6SM SKC=



000
FTUS44 KMOB 061120
TAFPNS
TAF
KPNS 061120Z 0612/0712 03004KT P6SM SKC
     FM061800 33006KT P6SM BKN120
     FM070300 34003KT P6SM SKC=



000
FTUS44 KMOB 061120
TAFPNS
TAF
KPNS 061120Z 0612/0712 03004KT P6SM SKC
     FM061800 33006KT P6SM BKN120
     FM070300 34003KT P6SM SKC=



    US Dept of Commerce
    National Oceanic and Atmospheric Administration
    National Weather Service
    1325 East West Highway
    Silver Spring, MD 20910
    Page Author: NWS Internet Services Team
Disclaimer
Information Quality
Credits
Glossary
Privacy Policy
Freedom of Information Act (FOIA)
About Us
Career Opportunities